sensor_id;sensor_type;location;lat;lon;timestamp;P1;durP1;ratioP1;P2;durP2;ratioP2
47529;SDS011;33272;51.922;7.730;2023-06-05T00:00:31;10.97;;;3.63;;
47529;SDS011;33272;51.922;7.730;2023-06-05T00:02:58;5.27;;;3.20;;
47529;SDS011;33272;51.922;7.730;2023-06-05T00:05:25;4.83;;;2.97;;
47529;SDS011;33272;51.922;7.730;2023-06-05T00:07:52;4.47;;;2.97;;
47529;SDS011;33272;51.922;7.730;2023-06-05T00:10:19;3.20;;;2.80;;
47529;SDS011;33272;51.922;7.730;2023-06-05T00:12:47;6.57;;;3.60;;
47529;SDS011;33272;51.922;7.730;2023-06-05T00:15:14;5.83;;;2.93;;
47529;SDS011;33272;51.922;7.730;2023-06-05T00:17:41;6.97;;;3.63;;
47529;SDS011;33272;51.922;7.730;2023-06-05T00:20:10;6.07;;;3.23;;
47529;SDS011;33272;51.922;7.730;2023-06-05T00:22:37;4.70;;;3.10;;
47529;SDS011;33272;51.922;7.730;2023-06-05T00:25:05;5.97;;;3.53;;
47529;SDS011;33272;51.922;7.730;2023-06-05T00:27:33;3.40;;;2.60;;
47529;SDS011;33272;51.922;7.730;2023-06-05T00:30:02;6.80;;;3.33;;
47529;SDS011;33272;51.922;7.730;2023-06-05T00:32:29;6.27;;;3.57;;
47529;SDS011;33272;51.922;7.730;2023-06-05T00:34:56;3.97;;;2.67;;
47529;SDS011;33272;51.922;7.730;2023-06-05T00:37:23;5.53;;;3.03;;
47529;SDS011;33272;51.922;7.730;2023-06-05T00:39:52;3.90;;;2.60;;
47529;SDS011;33272;51.922;7.730;2023-06-05T00:42:19;5.20;;;3.37;;
47529;SDS011;33272;51.922;7.730;2023-06-05T00:44:46;5.77;;;3.40;;
47529;SDS011;33272;51.922;7.730;2023-06-05T00:47:15;4.10;;;2.70;;
47529;SDS011;33272;51.922;7.730;2023-06-05T00:49:42;6.50;;;3.50;;
47529;SDS011;33272;51.922;7.730;2023-06-05T00:52:09;5.97;;;3.13;;
47529;SDS011;33272;51.922;7.730;2023-06-05T00:54:37;5.27;;;3.10;;
47529;SDS011;33272;51.922;7.730;2023-06-05T00:57:05;5.43;;;3.17;;
47529;SDS011;33272;51.922;7.730;2023-06-05T00:59:33;6.13;;;3.50;;
47529;SDS011;33272;51.922;7.730;2023-06-05T01:02:01;5.23;;;3.30;;
47529;SDS011;33272;51.922;7.730;2023-06-05T01:04:30;4.70;;;3.50;;
47529;SDS011;33272;51.922;7.730;2023-06-05T01:06:58;5.00;;;3.43;;
47529;SDS011;33272;51.922;7.730;2023-06-05T01:09:26;4.97;;;3.33;;
47529;SDS011;33272;51.922;7.730;2023-06-05T01:11:57;5.53;;;3.40;;
47529;SDS011;33272;51.922;7.730;2023-06-05T01:14:30;4.23;;;3.40;;
47529;SDS011;33272;51.922;7.730;2023-06-05T01:17:00;4.40;;;3.73;;
47529;SDS011;33272;51.922;7.730;2023-06-05T01:19:30;8.27;;;4.37;;
47529;SDS011;33272;51.922;7.730;2023-06-05T01:21:58;8.63;;;4.47;;
47529;SDS011;33272;51.922;7.730;2023-06-05T01:24:27;8.07;;;4.60;;
47529;SDS011;33272;51.922;7.730;2023-06-05T01:26:57;6.63;;;4.70;;
47529;SDS011;33272;51.922;7.730;2023-06-05T01:29:34;6.47;;;4.20;;
47529;SDS011;33272;51.922;7.730;2023-06-05T01:32:10;7.70;;;4.30;;
47529;SDS011;33272;51.922;7.730;2023-06-05T01:34:42;5.47;;;3.40;;
47529;SDS011;33272;51.922;7.730;2023-06-05T01:37:13;6.63;;;3.80;;
47529;SDS011;33272;51.922;7.730;2023-06-05T01:39:45;7.07;;;4.47;;
47529;SDS011;33272;51.922;7.730;2023-06-05T01:42:14;5.13;;;4.27;;
47529;SDS011;33272;51.922;7.730;2023-06-05T01:44:42;6.73;;;4.20;;
47529;SDS011;33272;51.922;7.730;2023-06-05T01:47:10;5.43;;;4.37;;
47529;SDS011;33272;51.922;7.730;2023-06-05T01:49:38;8.33;;;4.23;;
47529;SDS011;33272;51.922;7.730;2023-06-05T01:52:05;5.63;;;4.30;;
47529;SDS011;33272;51.922;7.730;2023-06-05T01:54:32;7.40;;;4.30;;
47529;SDS011;33272;51.922;7.730;2023-06-05T01:57:01;6.70;;;4.60;;
47529;SDS011;33272;51.922;7.730;2023-06-05T01:59:29;8.33;;;4.60;;
47529;SDS011;33272;51.922;7.730;2023-06-05T02:01:56;7.00;;;4.70;;
47529;SDS011;33272;51.922;7.730;2023-06-05T02:04:23;7.43;;;4.97;;
47529;SDS011;33272;51.922;7.730;2023-06-05T02:06:52;7.53;;;4.73;;
47529;SDS011;33272;51.922;7.730;2023-06-05T02:09:19;5.80;;;4.40;;
47529;SDS011;33272;51.922;7.730;2023-06-05T02:11:46;7.47;;;4.70;;
47529;SDS011;33272;51.922;7.730;2023-06-05T02:14:16;7.50;;;4.53;;
47529;SDS011;33272;51.922;7.730;2023-06-05T02:16:44;8.40;;;5.57;;
47529;SDS011;33272;51.922;7.730;2023-06-05T02:19:13;7.40;;;4.70;;
47529;SDS011;33272;51.922;7.730;2023-06-05T02:21:40;10.30;;;5.37;;
47529;SDS011;33272;51.922;7.730;2023-06-05T02:24:07;7.27;;;5.50;;
47529;SDS011;33272;51.922;7.730;2023-06-05T02:26:34;9.43;;;5.90;;
47529;SDS011;33272;51.922;7.730;2023-06-05T02:29:01;9.40;;;5.63;;
47529;SDS011;33272;51.922;7.730;2023-06-05T02:31:29;8.43;;;6.47;;
47529;SDS011;33272;51.922;7.730;2023-06-05T02:33:56;9.70;;;5.80;;
47529;SDS011;33272;51.922;7.730;2023-06-05T02:36:23;9.27;;;6.53;;
47529;SDS011;33272;51.922;7.730;2023-06-05T02:38:50;8.03;;;5.77;;
47529;SDS011;33272;51.922;7.730;2023-06-05T02:41:18;8.97;;;6.47;;
47529;SDS011;33272;51.922;7.730;2023-06-05T02:43:46;7.47;;;5.53;;
47529;SDS011;33272;51.922;7.730;2023-06-05T02:46:13;8.17;;;5.33;;
47529;SDS011;33272;51.922;7.730;2023-06-05T02:48:41;8.47;;;5.70;;
47529;SDS011;33272;51.922;7.730;2023-06-05T02:51:08;12.70;;;6.00;;
47529;SDS011;33272;51.922;7.730;2023-06-05T02:53:35;5.93;;;5.07;;
47529;SDS011;33272;51.922;7.730;2023-06-05T02:56:03;7.00;;;5.27;;
47529;SDS011;33272;51.922;7.730;2023-06-05T02:58:30;6.90;;;5.43;;
47529;SDS011;33272;51.922;7.730;2023-06-05T03:00:58;5.73;;;5.07;;
47529;SDS011;33272;51.922;7.730;2023-06-05T03:03:27;7.70;;;5.13;;
47529;SDS011;33272;51.922;7.730;2023-06-05T03:05:57;7.20;;;5.37;;
47529;SDS011;33272;51.922;7.730;2023-06-05T03:08:29;8.87;;;5.93;;
47529;SDS011;33272;51.922;7.730;2023-06-05T03:10:58;8.80;;;5.90;;
47529;SDS011;33272;51.922;7.730;2023-06-05T03:13:25;9.93;;;6.60;;
47529;SDS011;33272;51.922;7.730;2023-06-05T03:15:52;12.10;;;6.70;;
47529;SDS011;33272;51.922;7.730;2023-06-05T03:18:21;8.33;;;5.77;;
47529;SDS011;33272;51.922;7.730;2023-06-05T03:20:50;7.43;;;5.90;;
47529;SDS011;33272;51.922;7.730;2023-06-05T03:23:21;7.83;;;5.53;;
47529;SDS011;33272;51.922;7.730;2023-06-05T03:25:49;9.60;;;6.67;;
47529;SDS011;33272;51.922;7.730;2023-06-05T03:28:16;9.80;;;6.13;;
47529;SDS011;33272;51.922;7.730;2023-06-05T03:30:43;9.13;;;6.47;;
47529;SDS011;33272;51.922;7.730;2023-06-05T03:33:10;7.17;;;6.33;;
47529;SDS011;33272;51.922;7.730;2023-06-05T03:35:38;9.40;;;7.03;;
47529;SDS011;33272;51.922;7.730;2023-06-05T03:38:06;9.53;;;6.87;;
47529;SDS011;33272;51.922;7.730;2023-06-05T03:40:34;9.23;;;7.20;;
47529;SDS011;33272;51.922;7.730;2023-06-05T03:43:04;10.40;;;7.80;;
47529;SDS011;33272;51.922;7.730;2023-06-05T03:45:31;8.23;;;6.10;;
47529;SDS011;33272;51.922;7.730;2023-06-05T03:47:58;9.97;;;6.83;;
47529;SDS011;33272;51.922;7.730;2023-06-05T03:50:25;12.63;;;6.63;;
47529;SDS011;33272;51.922;7.730;2023-06-05T03:52:55;9.47;;;6.53;;
47529;SDS011;33272;51.922;7.730;2023-06-05T03:55:27;11.53;;;10.23;;
47529;SDS011;33272;51.922;7.730;2023-06-05T03:58:09;16.80;;;13.90;;
47529;SDS011;33272;51.922;7.730;2023-06-05T04:00:38;16.40;;;14.33;;
47529;SDS011;33272;51.922;7.730;2023-06-05T04:03:06;12.07;;;10.17;;
47529;SDS011;33272;51.922;7.730;2023-06-05T04:05:35;11.20;;;10.13;;
47529;SDS011;33272;51.922;7.730;2023-06-05T04:08:03;9.10;;;8.20;;
47529;SDS011;33272;51.922;7.730;2023-06-05T04:10:30;10.23;;;8.57;;
47529;SDS011;33272;51.922;7.730;2023-06-05T04:12:57;13.17;;;11.73;;
47529;SDS011;33272;51.922;7.730;2023-06-05T04:15:26;13.90;;;12.40;;
47529;SDS011;33272;51.922;7.730;2023-06-05T04:17:53;17.07;;;15.27;;
47529;SDS011;33272;51.922;7.730;2023-06-05T04:20:21;17.10;;;15.23;;
47529;SDS011;33272;51.922;7.730;2023-06-05T04:22:48;17.17;;;15.67;;
47529;SDS011;33272;51.922;7.730;2023-06-05T04:25:15;12.37;;;11.20;;
47529;SDS011;33272;51.922;7.730;2023-06-05T04:27:44;12.13;;;11.03;;
47529;SDS011;33272;51.922;7.730;2023-06-05T04:30:13;14.90;;;13.50;;
47529;SDS011;33272;51.922;7.730;2023-06-05T04:32:41;14.63;;;13.13;;
47529;SDS011;33272;51.922;7.730;2023-06-05T04:35:18;13.60;;;11.50;;
47529;SDS011;33272;51.922;7.730;2023-06-05T04:37:46;15.00;;;13.40;;
47529;SDS011;33272;51.922;7.730;2023-06-05T04:40:14;13.37;;;11.97;;
47529;SDS011;33272;51.922;7.730;2023-06-05T04:42:44;10.40;;;9.37;;
47529;SDS011;33272;51.922;7.730;2023-06-05T04:45:11;10.27;;;8.10;;
47529;SDS011;33272;51.922;7.730;2023-06-05T04:47:38;11.83;;;9.07;;
47529;SDS011;33272;51.922;7.730;2023-06-05T04:50:07;11.83;;;10.50;;
47529;SDS011;33272;51.922;7.730;2023-06-05T04:52:36;12.50;;;9.53;;
47529;SDS011;33272;51.922;7.730;2023-06-05T04:55:05;8.57;;;7.67;;
47529;SDS011;33272;51.922;7.730;2023-06-05T04:57:32;10.13;;;8.63;;
47529;SDS011;33272;51.922;7.730;2023-06-05T04:59:59;12.07;;;10.67;;
47529;SDS011;33272;51.922;7.730;2023-06-05T05:02:30;15.33;;;13.87;;
47529;SDS011;33272;51.922;7.730;2023-06-05T05:04:57;11.10;;;9.97;;
47529;SDS011;33272;51.922;7.730;2023-06-05T05:07:25;14.87;;;12.10;;
47529;SDS011;33272;51.922;7.730;2023-06-05T05:09:53;11.90;;;10.37;;
47529;SDS011;33272;51.922;7.730;2023-06-05T05:12:20;11.60;;;8.43;;
47529;SDS011;33272;51.922;7.730;2023-06-05T05:14:47;11.30;;;10.10;;
47529;SDS011;33272;51.922;7.730;2023-06-05T05:17:14;9.87;;;8.33;;
47529;SDS011;33272;51.922;7.730;2023-06-05T05:19:44;8.23;;;7.07;;
47529;SDS011;33272;51.922;7.730;2023-06-05T05:22:11;8.73;;;7.03;;
47529;SDS011;33272;51.922;7.730;2023-06-05T05:24:39;9.23;;;7.90;;
47529;SDS011;33272;51.922;7.730;2023-06-05T05:27:06;11.40;;;8.70;;
47529;SDS011;33272;51.922;7.730;2023-06-05T05:29:34;14.40;;;9.73;;
47529;SDS011;33272;51.922;7.730;2023-06-05T05:32:01;9.40;;;7.63;;
47529;SDS011;33272;51.922;7.730;2023-06-05T05:34:28;10.47;;;9.30;;
47529;SDS011;33272;51.922;7.730;2023-06-05T05:36:56;10.37;;;7.93;;
47529;SDS011;33272;51.922;7.730;2023-06-05T05:39:23;11.00;;;7.23;;
47529;SDS011;33272;51.922;7.730;2023-06-05T05:41:51;9.47;;;6.80;;
47529;SDS011;33272;51.922;7.730;2023-06-05T05:44:18;8.13;;;7.00;;
47529;SDS011;33272;51.922;7.730;2023-06-05T05:46:45;10.17;;;6.63;;
47529;SDS011;33272;51.922;7.730;2023-06-05T05:49:12;11.67;;;7.00;;
47529;SDS011;33272;51.922;7.730;2023-06-05T05:51:39;8.67;;;7.17;;
47529;SDS011;33272;51.922;7.730;2023-06-05T05:54:06;9.00;;;6.43;;
47529;SDS011;33272;51.922;7.730;2023-06-05T05:56:33;10.63;;;5.93;;
47529;SDS011;33272;51.922;7.730;2023-06-05T05:59:02;7.83;;;5.90;;
47529;SDS011;33272;51.922;7.730;2023-06-05T06:01:29;8.43;;;6.13;;
47529;SDS011;33272;51.922;7.730;2023-06-05T06:03:57;10.63;;;6.33;;
47529;SDS011;33272;51.922;7.730;2023-06-05T06:06:24;8.20;;;6.40;;
47529;SDS011;33272;51.922;7.730;2023-06-05T06:08:51;8.40;;;5.90;;
47529;SDS011;33272;51.922;7.730;2023-06-05T06:11:18;7.27;;;5.87;;
47529;SDS011;33272;51.922;7.730;2023-06-05T06:13:45;7.73;;;5.93;;
47529;SDS011;33272;51.922;7.730;2023-06-05T06:16:15;6.57;;;5.83;;
47529;SDS011;33272;51.922;7.730;2023-06-05T06:18:42;9.77;;;5.47;;
47529;SDS011;33272;51.922;7.730;2023-06-05T06:21:09;8.90;;;6.17;;
47529;SDS011;33272;51.922;7.730;2023-06-05T06:23:36;8.93;;;5.97;;
47529;SDS011;33272;51.922;7.730;2023-06-05T06:26:03;7.23;;;5.60;;
47529;SDS011;33272;51.922;7.730;2023-06-05T06:28:31;7.40;;;5.40;;
47529;SDS011;33272;51.922;7.730;2023-06-05T06:30:58;7.90;;;6.23;;
47529;SDS011;33272;51.922;7.730;2023-06-05T06:33:26;6.53;;;5.70;;
47529;SDS011;33272;51.922;7.730;2023-06-05T06:35:54;7.07;;;5.57;;
47529;SDS011;33272;51.922;7.730;2023-06-05T06:38:23;6.87;;;5.60;;
47529;SDS011;33272;51.922;7.730;2023-06-05T06:40:52;8.60;;;5.83;;
47529;SDS011;33272;51.922;7.730;2023-06-05T06:43:19;7.17;;;5.70;;
47529;SDS011;33272;51.922;7.730;2023-06-05T06:45:46;12.50;;;5.60;;
47529;SDS011;33272;51.922;7.730;2023-06-05T06:48:15;7.87;;;5.60;;
47529;SDS011;33272;51.922;7.730;2023-06-05T06:50:45;7.60;;;5.77;;
47529;SDS011;33272;51.922;7.730;2023-06-05T06:53:12;7.43;;;5.60;;
47529;SDS011;33272;51.922;7.730;2023-06-05T06:55:39;9.53;;;6.10;;
47529;SDS011;33272;51.922;7.730;2023-06-05T06:58:06;7.57;;;5.97;;
47529;SDS011;33272;51.922;7.730;2023-06-05T07:00:33;7.33;;;5.43;;
47529;SDS011;33272;51.922;7.730;2023-06-05T07:03:00;8.23;;;5.30;;
47529;SDS011;33272;51.922;7.730;2023-06-05T07:05:27;10.00;;;6.77;;
47529;SDS011;33272;51.922;7.730;2023-06-05T07:07:56;9.87;;;6.57;;
47529;SDS011;33272;51.922;7.730;2023-06-05T07:10:26;9.93;;;6.20;;
47529;SDS011;33272;51.922;7.730;2023-06-05T07:12:54;9.27;;;6.77;;
47529;SDS011;33272;51.922;7.730;2023-06-05T07:15:21;8.03;;;5.53;;
47529;SDS011;33272;51.922;7.730;2023-06-05T07:17:49;8.20;;;5.80;;
47529;SDS011;33272;51.922;7.730;2023-06-05T07:20:16;6.97;;;5.67;;
47529;SDS011;33272;51.922;7.730;2023-06-05T07:22:43;12.27;;;6.77;;
47529;SDS011;33272;51.922;7.730;2023-06-05T07:25:12;8.10;;;5.37;;
47529;SDS011;33272;51.922;7.730;2023-06-05T07:27:42;7.80;;;5.60;;
47529;SDS011;33272;51.922;7.730;2023-06-05T07:30:10;8.57;;;5.77;;
47529;SDS011;33272;51.922;7.730;2023-06-05T07:32:39;7.50;;;5.83;;
47529;SDS011;33272;51.922;7.730;2023-06-05T07:35:07;8.53;;;6.27;;
47529;SDS011;33272;51.922;7.730;2023-06-05T07:37:35;8.30;;;5.43;;
47529;SDS011;33272;51.922;7.730;2023-06-05T07:40:02;10.17;;;6.13;;
47529;SDS011;33272;51.922;7.730;2023-06-05T07:42:32;8.63;;;5.87;;
47529;SDS011;33272;51.922;7.730;2023-06-05T07:44:59;7.90;;;5.73;;
47529;SDS011;33272;51.922;7.730;2023-06-05T07:47:26;7.37;;;5.37;;
47529;SDS011;33272;51.922;7.730;2023-06-05T07:49:57;8.63;;;5.40;;
47529;SDS011;33272;51.922;7.730;2023-06-05T07:52:24;7.57;;;5.70;;
47529;SDS011;33272;51.922;7.730;2023-06-05T07:54:52;8.47;;;5.63;;
47529;SDS011;33272;51.922;7.730;2023-06-05T07:57:19;8.50;;;5.53;;
47529;SDS011;33272;51.922;7.730;2023-06-05T07:59:48;6.13;;;4.80;;
47529;SDS011;33272;51.922;7.730;2023-06-05T08:02:15;9.80;;;5.50;;
47529;SDS011;33272;51.922;7.730;2023-06-05T08:04:43;12.70;;;6.33;;
47529;SDS011;33272;51.922;7.730;2023-06-05T08:07:10;10.17;;;6.67;;
47529;SDS011;33272;51.922;7.730;2023-06-05T08:09:38;10.40;;;6.07;;
47529;SDS011;33272;51.922;7.730;2023-06-05T08:12:05;8.53;;;5.70;;
47529;SDS011;33272;51.922;7.730;2023-06-05T08:14:33;10.17;;;5.40;;
47529;SDS011;33272;51.922;7.730;2023-06-05T08:17:03;7.00;;;5.20;;
47529;SDS011;33272;51.922;7.730;2023-06-05T08:19:30;9.17;;;5.90;;
47529;SDS011;33272;51.922;7.730;2023-06-05T08:21:57;7.37;;;4.90;;
47529;SDS011;33272;51.922;7.730;2023-06-05T08:24:24;8.33;;;5.30;;
47529;SDS011;33272;51.922;7.730;2023-06-05T08:26:53;7.60;;;5.53;;
47529;SDS011;33272;51.922;7.730;2023-06-05T08:29:20;10.43;;;5.50;;
47529;SDS011;33272;51.922;7.730;2023-06-05T08:31:47;10.13;;;5.80;;
47529;SDS011;33272;51.922;7.730;2023-06-05T08:34:15;7.57;;;5.23;;
47529;SDS011;33272;51.922;7.730;2023-06-05T08:36:43;8.00;;;5.13;;
47529;SDS011;33272;51.922;7.730;2023-06-05T08:39:10;9.87;;;4.73;;
47529;SDS011;33272;51.922;7.730;2023-06-05T08:41:37;6.63;;;4.87;;
47529;SDS011;33272;51.922;7.730;2023-06-05T08:44:04;9.70;;;5.67;;
47529;SDS011;33272;51.922;7.730;2023-06-05T08:46:31;10.63;;;5.07;;
47529;SDS011;33272;51.922;7.730;2023-06-05T08:49:07;6.30;;;5.10;;
47529;SDS011;33272;51.922;7.730;2023-06-05T08:51:38;8.03;;;4.77;;
47529;SDS011;33272;51.922;7.730;2023-06-05T08:54:06;8.37;;;5.40;;
47529;SDS011;33272;51.922;7.730;2023-06-05T08:56:39;7.97;;;5.50;;
47529;SDS011;33272;51.922;7.730;2023-06-05T08:59:06;9.97;;;4.97;;
47529;SDS011;33272;51.922;7.730;2023-06-05T09:01:33;6.80;;;4.50;;
47529;SDS011;33272;51.922;7.730;2023-06-05T09:04:02;9.80;;;4.87;;
47529;SDS011;33272;51.922;7.730;2023-06-05T09:06:29;7.37;;;4.40;;
47529;SDS011;33272;51.922;7.730;2023-06-05T09:08:59;6.27;;;4.47;;
47529;SDS011;33272;51.922;7.730;2023-06-05T09:11:28;6.33;;;4.73;;
47529;SDS011;33272;51.922;7.730;2023-06-05T09:13:56;6.57;;;4.43;;
47529;SDS011;33272;51.922;7.730;2023-06-05T09:16:32;10.37;;;5.70;;
47529;SDS011;33272;51.922;7.730;2023-06-05T09:19:00;6.73;;;4.50;;
47529;SDS011;33272;51.922;7.730;2023-06-05T09:21:28;6.10;;;3.97;;
47529;SDS011;33272;51.922;7.730;2023-06-05T09:24:17;10.40;;;4.97;;
47529;SDS011;33272;51.922;7.730;2023-06-05T09:26:47;5.67;;;3.77;;
47529;SDS011;33272;51.922;7.730;2023-06-05T09:29:23;5.83;;;4.27;;
47529;SDS011;33272;51.922;7.730;2023-06-05T09:31:54;7.33;;;4.17;;
47529;SDS011;33272;51.922;7.730;2023-06-05T09:34:23;7.33;;;4.20;;
47529;SDS011;33272;51.922;7.730;2023-06-05T09:36:53;6.50;;;3.97;;
47529;SDS011;33272;51.922;7.730;2023-06-05T09:39:24;5.30;;;3.87;;
47529;SDS011;33272;51.922;7.730;2023-06-05T09:41:52;7.07;;;4.60;;
47529;SDS011;33272;51.922;7.730;2023-06-05T09:44:20;7.23;;;3.90;;
47529;SDS011;33272;51.922;7.730;2023-06-05T09:46:51;4.77;;;4.00;;
47529;SDS011;33272;51.922;7.730;2023-06-05T09:49:20;9.27;;;4.20;;
47529;SDS011;33272;51.922;7.730;2023-06-05T09:51:55;8.20;;;4.10;;
47529;SDS011;33272;51.922;7.730;2023-06-05T09:54:26;7.23;;;4.10;;
47529;SDS011;33272;51.922;7.730;2023-06-05T09:56:58;8.63;;;4.13;;
47529;SDS011;33272;51.922;7.730;2023-06-05T09:59:27;5.40;;;3.60;;
47529;SDS011;33272;51.922;7.730;2023-06-05T10:01:57;5.73;;;3.73;;
47529;SDS011;33272;51.922;7.730;2023-06-05T10:04:27;6.67;;;3.97;;
47529;SDS011;33272;51.922;7.730;2023-06-05T10:06:57;8.80;;;4.07;;
47529;SDS011;33272;51.922;7.730;2023-06-05T10:09:30;6.90;;;3.73;;
47529;SDS011;33272;51.922;7.730;2023-06-05T10:11:57;5.67;;;4.40;;
47529;SDS011;33272;51.922;7.730;2023-06-05T10:14:25;6.97;;;3.97;;
47529;SDS011;33272;51.922;7.730;2023-06-05T10:16:53;4.43;;;3.80;;
47529;SDS011;33272;51.922;7.730;2023-06-05T10:19:21;6.27;;;4.00;;
47529;SDS011;33272;51.922;7.730;2023-06-05T10:21:50;4.97;;;3.77;;
47529;SDS011;33272;51.922;7.730;2023-06-05T10:24:18;6.27;;;4.20;;
47529;SDS011;33272;51.922;7.730;2023-06-05T10:27:08;6.70;;;3.57;;
47529;SDS011;33272;51.922;7.730;2023-06-05T10:30:01;9.30;;;3.77;;
47529;SDS011;33272;51.922;7.730;2023-06-05T10:33:03;5.57;;;3.07;;
47529;SDS011;33272;51.922;7.730;2023-06-05T10:35:45;8.63;;;3.70;;
47529;SDS011;33272;51.922;7.730;2023-06-05T10:38:17;13.07;;;3.77;;
47529;SDS011;33272;51.922;7.730;2023-06-05T10:40:48;4.57;;;2.90;;
47529;SDS011;33272;51.922;7.730;2023-06-05T10:43:30;5.03;;;3.17;;
47529;SDS011;33272;51.922;7.730;2023-06-05T10:45:59;6.23;;;3.07;;
47529;SDS011;33272;51.922;7.730;2023-06-05T10:51:32;4.57;;;2.83;;
47529;SDS011;33272;51.922;7.730;2023-06-05T10:54:03;3.67;;;2.70;;
47529;SDS011;33272;51.922;7.730;2023-06-05T10:59:28;8.00;;;3.10;;
47529;SDS011;33272;51.922;7.730;2023-06-05T11:05:02;4.50;;;3.30;;
47529;SDS011;33272;51.922;7.730;2023-06-05T11:07:32;4.17;;;3.20;;
47529;SDS011;33272;51.922;7.730;2023-06-05T11:10:13;6.17;;;2.77;;
47529;SDS011;33272;51.922;7.730;2023-06-05T11:13:03;6.00;;;2.80;;
47529;SDS011;33272;51.922;7.730;2023-06-05T11:15:35;8.17;;;3.67;;
47529;SDS011;33272;51.922;7.730;2023-06-05T11:18:29;4.37;;;3.20;;
47529;SDS011;33272;51.922;7.730;2023-06-05T11:21:01;4.53;;;3.10;;
47529;SDS011;33272;51.922;7.730;2023-06-05T11:23:28;4.47;;;3.50;;
47529;SDS011;33272;51.922;7.730;2023-06-05T11:25:56;4.30;;;3.50;;
47529;SDS011;33272;51.922;7.730;2023-06-05T11:28:45;5.53;;;3.47;;
47529;SDS011;33272;51.922;7.730;2023-06-05T11:31:13;7.47;;;3.30;;
47529;SDS011;33272;51.922;7.730;2023-06-05T11:33:56;7.67;;;3.07;;
47529;SDS011;33272;51.922;7.730;2023-06-05T11:36:23;4.63;;;2.93;;
47529;SDS011;33272;51.922;7.730;2023-06-05T11:38:54;4.47;;;3.10;;
47529;SDS011;33272;51.922;7.730;2023-06-05T11:41:23;4.70;;;2.90;;
47529;SDS011;33272;51.922;7.730;2023-06-05T11:43:50;3.90;;;2.67;;
47529;SDS011;33272;51.922;7.730;2023-06-05T11:46:19;3.63;;;2.87;;
47529;SDS011;33272;51.922;7.730;2023-06-05T11:48:46;4.07;;;2.90;;
47529;SDS011;33272;51.922;7.730;2023-06-05T11:51:13;5.47;;;3.00;;
47529;SDS011;33272;51.922;7.730;2023-06-05T11:53:43;4.70;;;2.70;;
47529;SDS011;33272;51.922;7.730;2023-06-05T11:56:13;5.60;;;2.60;;
47529;SDS011;33272;51.922;7.730;2023-06-05T11:58:42;11.77;;;3.83;;
47529;SDS011;33272;51.922;7.730;2023-06-05T12:01:12;4.63;;;3.03;;
47529;SDS011;33272;51.922;7.730;2023-06-05T12:03:44;2.97;;;2.43;;
47529;SDS011;33272;51.922;7.730;2023-06-05T12:06:12;2.47;;;2.10;;
47529;SDS011;33272;51.922;7.730;2023-06-05T12:08:41;10.93;;;3.03;;
47529;SDS011;33272;51.922;7.730;2023-06-05T12:11:19;2.63;;;2.13;;
47529;SDS011;33272;51.922;7.730;2023-06-05T12:13:51;27.03;;;4.47;;
47529;SDS011;33272;51.922;7.730;2023-06-05T12:16:20;4.73;;;2.30;;
47529;SDS011;33272;51.922;7.730;2023-06-05T12:18:59;3.43;;;2.30;;
47529;SDS011;33272;51.922;7.730;2023-06-05T12:21:26;3.27;;;2.40;;
47529;SDS011;33272;51.922;7.730;2023-06-05T12:24:00;4.83;;;2.33;;
47529;SDS011;33272;51.922;7.730;2023-06-05T12:26:29;3.73;;;2.20;;
47529;SDS011;33272;51.922;7.730;2023-06-05T12:29:04;3.67;;;2.23;;
47529;SDS011;33272;51.922;7.730;2023-06-05T12:31:32;4.53;;;2.53;;
47529;SDS011;33272;51.922;7.730;2023-06-05T12:34:02;10.37;;;3.27;;
47529;SDS011;33272;51.922;7.730;2023-06-05T12:36:30;4.00;;;2.40;;
47529;SDS011;33272;51.922;7.730;2023-06-05T12:39:01;2.77;;;2.20;;
47529;SDS011;33272;51.922;7.730;2023-06-05T12:41:32;4.10;;;1.90;;
47529;SDS011;33272;51.922;7.730;2023-06-05T12:43:59;3.13;;;2.20;;
47529;SDS011;33272;51.922;7.730;2023-06-05T12:46:29;6.03;;;1.83;;
47529;SDS011;33272;51.922;7.730;2023-06-05T12:48:57;2.70;;;2.27;;
47529;SDS011;33272;51.922;7.730;2023-06-05T12:51:26;2.33;;;2.07;;
47529;SDS011;33272;51.922;7.730;2023-06-05T12:53:54;3.80;;;1.73;;
47529;SDS011;33272;51.922;7.730;2023-06-05T12:56:22;5.20;;;2.20;;
47529;SDS011;33272;51.922;7.730;2023-06-05T12:58:52;4.90;;;2.20;;
47529;SDS011;33272;51.922;7.730;2023-06-05T13:01:20;2.87;;;2.20;;
47529;SDS011;33272;51.922;7.730;2023-06-05T13:03:48;3.17;;;2.40;;
47529;SDS011;33272;51.922;7.730;2023-06-05T13:06:15;2.33;;;2.00;;
47529;SDS011;33272;51.922;7.730;2023-06-05T13:08:43;2.87;;;2.30;;
47529;SDS011;33272;51.922;7.730;2023-06-05T13:11:11;4.13;;;2.20;;
47529;SDS011;33272;51.922;7.730;2023-06-05T13:13:39;2.77;;;2.07;;
47529;SDS011;33272;51.922;7.730;2023-06-05T13:16:06;2.20;;;1.60;;
47529;SDS011;33272;51.922;7.730;2023-06-05T13:18:33;3.53;;;2.00;;
47529;SDS011;33272;51.922;7.730;2023-06-05T13:21:01;3.40;;;2.00;;
47529;SDS011;33272;51.922;7.730;2023-06-05T13:23:29;3.30;;;2.40;;
47529;SDS011;33272;51.922;7.730;2023-06-05T13:25:58;2.97;;;2.00;;
47529;SDS011;33272;51.922;7.730;2023-06-05T13:28:25;2.87;;;2.17;;
47529;SDS011;33272;51.922;7.730;2023-06-05T13:30:52;6.80;;;2.33;;
47529;SDS011;33272;51.922;7.730;2023-06-05T13:33:19;6.63;;;2.10;;
47529;SDS011;33272;51.922;7.730;2023-06-05T13:35:47;6.17;;;2.20;;
47529;SDS011;33272;51.922;7.730;2023-06-05T13:38:14;4.63;;;2.40;;
47529;SDS011;33272;51.922;7.730;2023-06-05T13:40:42;2.67;;;1.80;;
47529;SDS011;33272;51.922;7.730;2023-06-05T13:43:14;2.50;;;1.90;;
47529;SDS011;33272;51.922;7.730;2023-06-05T13:45:42;2.47;;;1.87;;
47529;SDS011;33272;51.922;7.730;2023-06-05T13:48:09;3.03;;;1.83;;
47529;SDS011;33272;51.922;7.730;2023-06-05T13:50:36;2.50;;;1.93;;
47529;SDS011;33272;51.922;7.730;2023-06-05T13:53:02;6.23;;;1.90;;
47529;SDS011;33272;51.922;7.730;2023-06-05T13:55:30;2.53;;;2.00;;
47529;SDS011;33272;51.922;7.730;2023-06-05T13:57:56;2.30;;;1.87;;
47529;SDS011;33272;51.922;7.730;2023-06-05T14:00:27;3.43;;;2.00;;
47529;SDS011;33272;51.922;7.730;2023-06-05T14:02:55;6.07;;;1.90;;
47529;SDS011;33272;51.922;7.730;2023-06-05T14:05:22;9.87;;;2.30;;
47529;SDS011;33272;51.922;7.730;2023-06-05T14:07:50;6.67;;;2.53;;
47529;SDS011;33272;51.922;7.730;2023-06-05T14:10:18;2.97;;;1.70;;
47529;SDS011;33272;51.922;7.730;2023-06-05T14:12:47;3.97;;;1.47;;
47529;SDS011;33272;51.922;7.730;2023-06-05T14:15:15;2.70;;;1.93;;
47529;SDS011;33272;51.922;7.730;2023-06-05T14:17:44;2.70;;;1.90;;
47529;SDS011;33272;51.922;7.730;2023-06-05T14:20:11;3.70;;;1.77;;
47529;SDS011;33272;51.922;7.730;2023-06-05T14:22:38;3.77;;;1.90;;
47529;SDS011;33272;51.922;7.730;2023-06-05T14:25:06;2.20;;;2.00;;
47529;SDS011;33272;51.922;7.730;2023-06-05T14:27:35;6.00;;;2.20;;
47529;SDS011;33272;51.922;7.730;2023-06-05T14:30:02;2.73;;;1.77;;
47529;SDS011;33272;51.922;7.730;2023-06-05T14:32:32;3.43;;;2.07;;
47529;SDS011;33272;51.922;7.730;2023-06-05T14:35:00;2.90;;;1.70;;
47529;SDS011;33272;51.922;7.730;2023-06-05T14:37:27;2.40;;;1.97;;
47529;SDS011;33272;51.922;7.730;2023-06-05T14:39:54;2.60;;;1.93;;
47529;SDS011;33272;51.922;7.730;2023-06-05T14:42:21;4.63;;;1.77;;
47529;SDS011;33272;51.922;7.730;2023-06-05T14:44:49;2.10;;;1.70;;
47529;SDS011;33272;51.922;7.730;2023-06-05T14:47:16;2.00;;;1.80;;
47529;SDS011;33272;51.922;7.730;2023-06-05T14:49:43;3.00;;;2.13;;
47529;SDS011;33272;51.922;7.730;2023-06-05T14:52:11;3.40;;;1.67;;
47529;SDS011;33272;51.922;7.730;2023-06-05T14:54:38;3.67;;;2.00;;
47529;SDS011;33272;51.922;7.730;2023-06-05T14:57:05;3.57;;;2.10;;
47529;SDS011;33272;51.922;7.730;2023-06-05T14:59:33;2.43;;;2.00;;
47529;SDS011;33272;51.922;7.730;2023-06-05T15:02:00;5.20;;;1.90;;
47529;SDS011;33272;51.922;7.730;2023-06-05T15:04:27;3.83;;;2.17;;